Morro do Chapeu, Brazil
Current Conditions -  °F | °C
As of 3:00 PM on Sunday 25 Jan 2015 (Local Time) from SBPL Reporting Station
Broken Clouds Broken Clouds  
Wind Chill: 91°   Ceiling: 4000
Heat Index: 95°   Visibility: 6mi
Dew Point: 68°   Wind: 14mph
Humidity: 46%   Direction: 100°E
Pressure: 29.88"   Gusts: NA
Location:  11.55°S, 41.16°W
Report Text: SBPL 251800Z 10012KT 9999 BKN040 33/20 Q1012
Loading
Personal Weather Stations






























Interactive Weather Map New forecast layout! Learn more

10-Day Weather Forecast

Advertisements
Track Severe Weather on mobile